Airfield :
LOGIN :

Register | Disclaimer

   EN    FR    IT 

 










Legend :    VFR   Marginal VFR   IFR   Intensive IFR   Very Intensive IFR
Visi :
Ceiling :
>= 8 km
>= 3000ft
5 to 8 km
1000 to 3000 ft
1500m to 5 km
500 to 1000 ft
800 to 1500m
200 to 500 ft
< 800m
< 200 ft
Symbols :   Thunderstorms  Fog  Heavy snow  Heavy precipitations  Wind > 20 kt
SIGMETs :     Misc.  Thunderstorms  Icing  Turbulence  Mountain Waves  Volcanic Ashes






- Airport Elevation : 605 ft
- IATA code : BAY


LRBM - Tautii Magheraus

CURRENT METAR :
  • 241100Z 14005KT 110V170 CAVOK 04/01 Q1029 R09/19//95

EXPIRED METARs :
  • 241030Z 11005KT CAVOK 03/M00 Q1029 R09/19//95
  • 241000Z 12005KT 080V140 CAVOK 02/00 Q1030 R09/19//95
  • 240930Z 12004KT CAVOK 02/00 Q1030 R09/19//95
  • 240900Z 12003KT 090V150 CAVOK 01/M00 Q1030 R09/19//95

TAF TAF LRBM
Valid from the 24 at 12:00 until the 24 at 21:00 UTC


241100Z 2412/2421 14006KT CAVOK
BECMG 2416/2418 5000 BR
BECMG 2418/2420 1500 BR



MET'MAP, your aeronautical weather chart ! - Copyright ORBIFLY December 2007 - Disclaimer

ORBIFLY MET'MAP TEAM :

Programming & Development : Alexandra Zaïnal
Concept & original design : Baudouin d'Aumeries
Assistance for programming : Marc-Olivier Méhu
Technical & hardware support : Manuel Goepfert

Contact : metmap@orbifly.com




SOURCES & CREDITS :

   NOAA